sensor_id;sensor_type;location;lat;lon;timestamp;pressure;altitude;pressure_sealevel;temperature;humidity
49709;BME280;35601;55.902;13.606;2023-05-23T00:00:18;100746.35;;;8.39;64.00
49709;BME280;35601;55.902;13.606;2023-05-23T00:02:43;100744.21;;;8.30;63.83
49709;BME280;35601;55.902;13.606;2023-05-23T00:05:09;100743.01;;;8.57;63.64
49709;BME280;35601;55.902;13.606;2023-05-23T00:07:34;100737.03;;;8.90;63.59
49709;BME280;35601;55.902;13.606;2023-05-23T00:09:59;100729.84;;;8.40;62.73
49709;BME280;35601;55.902;13.606;2023-05-23T00:12:24;100725.54;;;8.45;62.92
49709;BME280;35601;55.902;13.606;2023-05-23T00:14:50;100722.64;;;8.70;62.74
49709;BME280;35601;55.902;13.606;2023-05-23T00:17:15;100720.58;;;8.31;62.71
49709;BME280;35601;55.902;13.606;2023-05-23T00:19:40;100716.65;;;8.54;62.91
49709;BME280;35601;55.902;13.606;2023-05-23T00:22:05;100712.90;;;8.49;62.91
49709;BME280;35601;55.902;13.606;2023-05-23T00:24:31;100707.29;;;8.14;62.72
49709;BME280;35601;55.902;13.606;2023-05-23T00:26:57;100704.46;;;8.40;63.21
49709;BME280;35601;55.902;13.606;2023-05-23T00:29:22;100701.72;;;8.43;63.12
49709;BME280;35601;55.902;13.606;2023-05-23T00:31:47;100699.44;;;8.48;62.82
49709;BME280;35601;55.902;13.606;2023-05-23T00:34:13;100694.21;;;8.24;62.59
49709;BME280;35601;55.902;13.606;2023-05-23T00:36:38;100688.35;;;8.52;62.61
49709;BME280;35601;55.902;13.606;2023-05-23T00:39:03;100682.90;;;8.17;63.25
49709;BME280;35601;55.902;13.606;2023-05-23T00:41:29;100678.35;;;8.16;63.31
49709;BME280;35601;55.902;13.606;2023-05-23T00:43:54;100672.31;;;8.38;62.94
49709;BME280;35601;55.902;13.606;2023-05-23T00:46:19;100671.19;;;8.46;62.77
49709;BME280;35601;55.902;13.606;2023-05-23T00:48:45;100670.26;;;8.20;62.86
49709;BME280;35601;55.902;13.606;2023-05-23T00:51:10;100668.45;;;8.12;62.90
49709;BME280;35601;55.902;13.606;2023-05-23T00:53:35;100661.66;;;8.61;63.36
49709;BME280;35601;55.902;13.606;2023-05-23T00:56:01;100659.04;;;8.45;62.94
49709;BME280;35601;55.902;13.606;2023-05-23T00:58:26;100659.17;;;8.63;62.84
49709;BME280;35601;55.902;13.606;2023-05-23T01:00:51;100660.03;;;8.47;62.52
49709;BME280;35601;55.902;13.606;2023-05-23T01:03:16;100658.79;;;8.55;62.45
49709;BME280;35601;55.902;13.606;2023-05-23T01:05:42;100660.72;;;8.30;61.72
49709;BME280;35601;55.902;13.606;2023-05-23T01:08:07;100657.94;;;8.35;61.80
49709;BME280;35601;55.902;13.606;2023-05-23T01:10:32;100655.62;;;8.84;61.82
49709;BME280;35601;55.902;13.606;2023-05-23T01:13:12;100647.53;;;8.43;61.96
49709;BME280;35601;55.902;13.606;2023-05-23T01:15:28;100645.13;;;8.50;61.84
49709;BME280;35601;55.902;13.606;2023-05-23T01:17:54;100645.08;;;8.58;61.47
49709;BME280;35601;55.902;13.606;2023-05-23T01:20:18;100646.40;;;8.40;61.76
49709;BME280;35601;55.902;13.606;2023-05-23T01:22:57;100643.07;;;8.22;62.15
49709;BME280;35601;55.902;13.606;2023-05-23T01:25:20;100631.93;;;8.31;62.34
49709;BME280;35601;55.902;13.606;2023-05-23T01:27:42;100625.34;;;8.27;62.28
49709;BME280;35601;55.902;13.606;2023-05-23T01:29:59;100620.61;;;8.74;62.62
49709;BME280;35601;55.902;13.606;2023-05-23T01:32:22;100619.36;;;8.72;62.82
49709;BME280;35601;55.902;13.606;2023-05-23T01:34:50;100614.70;;;8.65;63.00
49709;BME280;35601;55.902;13.606;2023-05-23T01:37:13;100611.64;;;8.37;63.16
49709;BME280;35601;55.902;13.606;2023-05-23T01:39:38;100609.94;;;8.41;63.73
49709;BME280;35601;55.902;13.606;2023-05-23T01:42:03;100610.65;;;8.36;64.09
49709;BME280;35601;55.902;13.606;2023-05-23T01:44:29;100605.19;;;8.21;64.68
49709;BME280;35601;55.902;13.606;2023-05-23T01:46:53;100598.81;;;8.12;65.15
49709;BME280;35601;55.902;13.606;2023-05-23T01:49:19;100596.63;;;7.82;65.50
49709;BME280;35601;55.902;13.606;2023-05-23T01:51:45;100593.85;;;8.06;65.68
49709;BME280;35601;55.902;13.606;2023-05-23T01:54:10;100590.87;;;8.10;65.67
49709;BME280;35601;55.902;13.606;2023-05-23T01:56:35;100587.63;;;8.03;65.72
49709;BME280;35601;55.902;13.606;2023-05-23T01:58:59;100586.27;;;7.79;66.47
49709;BME280;35601;55.902;13.606;2023-05-23T02:01:26;100585.17;;;7.91;66.67
49709;BME280;35601;55.902;13.606;2023-05-23T02:03:50;100579.59;;;8.19;66.31
49709;BME280;35601;55.902;13.606;2023-05-23T02:06:15;100576.52;;;7.82;66.10
49709;BME280;35601;55.902;13.606;2023-05-23T02:08:41;100577.52;;;8.14;65.72
49709;BME280;35601;55.902;13.606;2023-05-23T02:11:06;100571.97;;;8.14;65.99
49709;BME280;35601;55.902;13.606;2023-05-23T02:13:32;100571.88;;;8.11;65.98
49709;BME280;35601;55.902;13.606;2023-05-23T02:15:56;100572.74;;;7.71;65.65
49709;BME280;35601;55.902;13.606;2023-05-23T02:18:22;100571.83;;;8.18;66.41
49709;BME280;35601;55.902;13.606;2023-05-23T02:20:47;100573.12;;;8.05;66.32
49709;BME280;35601;55.902;13.606;2023-05-23T02:23:14;100571.01;;;8.04;66.13
49709;BME280;35601;55.902;13.606;2023-05-23T02:25:39;100572.23;;;8.15;66.18
49709;BME280;35601;55.902;13.606;2023-05-23T02:28:03;100570.09;;;8.16;66.09
49709;BME280;35601;55.902;13.606;2023-05-23T02:30:28;100568.83;;;8.25;66.08
49709;BME280;35601;55.902;13.606;2023-05-23T02:32:54;100568.62;;;7.82;65.65
49709;BME280;35601;55.902;13.606;2023-05-23T02:35:19;100568.62;;;8.15;65.47
49709;BME280;35601;55.902;13.606;2023-05-23T02:37:46;100567.38;;;8.49;65.34
49709;BME280;35601;55.902;13.606;2023-05-23T02:40:11;100565.46;;;8.33;65.04
49709;BME280;35601;55.902;13.606;2023-05-23T02:42:36;100562.21;;;8.11;65.02
49709;BME280;35601;55.902;13.606;2023-05-23T02:45:01;100558.07;;;8.44;64.78
49709;BME280;35601;55.902;13.606;2023-05-23T02:47:28;100553.23;;;8.22;64.74
49709;BME280;35601;55.902;13.606;2023-05-23T02:49:53;100550.49;;;8.53;65.03
49709;BME280;35601;55.902;13.606;2023-05-23T02:52:17;100545.04;;;8.34;65.04
49709;BME280;35601;55.902;13.606;2023-05-23T02:54:42;100543.13;;;8.43;64.49
49709;BME280;35601;55.902;13.606;2023-05-23T02:57:08;100542.80;;;8.72;64.60
49709;BME280;35601;55.902;13.606;2023-05-23T02:59:34;100542.97;;;8.60;64.46
49709;BME280;35601;55.902;13.606;2023-05-23T03:01:59;100542.73;;;8.53;64.01
49709;BME280;35601;55.902;13.606;2023-05-23T03:04:26;100539.35;;;8.29;63.71
49709;BME280;35601;55.902;13.606;2023-05-23T03:06:49;100541.66;;;8.74;63.49
49709;BME280;35601;55.902;13.606;2023-05-23T03:09:17;100533.61;;;8.43;63.35
49709;BME280;35601;55.902;13.606;2023-05-23T03:11:40;100532.47;;;8.47;63.14
49709;BME280;35601;55.902;13.606;2023-05-23T03:14:06;100528.56;;;8.75;63.01
49709;BME280;35601;55.902;13.606;2023-05-23T03:16:31;100525.59;;;8.65;62.84
49709;BME280;35601;55.902;13.606;2023-05-23T03:18:58;100525.73;;;8.79;62.56
49709;BME280;35601;55.902;13.606;2023-05-23T03:21:23;100520.59;;;8.82;62.09
49709;BME280;35601;55.902;13.606;2023-05-23T03:23:48;100516.89;;;8.84;62.28
49709;BME280;35601;55.902;13.606;2023-05-23T03:26:12;100509.29;;;8.73;62.34
49709;BME280;35601;55.902;13.606;2023-05-23T03:28:40;100503.71;;;8.76;62.28
49709;BME280;35601;55.902;13.606;2023-05-23T03:31:03;100501.48;;;8.66;62.64
49709;BME280;35601;55.902;13.606;2023-05-23T03:33:28;100496.36;;;8.83;63.13
49709;BME280;35601;55.902;13.606;2023-05-23T03:35:54;100491.43;;;8.63;63.05
49709;BME280;35601;55.902;13.606;2023-05-23T03:38:19;100489.81;;;8.67;62.86
49709;BME280;35601;55.902;13.606;2023-05-23T03:40:44;100483.76;;;9.01;62.24
49709;BME280;35601;55.902;13.606;2023-05-23T03:43:09;100481.21;;;9.09;62.60
49709;BME280;35601;55.902;13.606;2023-05-23T03:45:35;100479.74;;;8.93;62.30
49709;BME280;35601;55.902;13.606;2023-05-23T03:48:01;100478.07;;;8.97;62.35
49709;BME280;35601;55.902;13.606;2023-05-23T03:50:26;100478.15;;;8.82;62.67
49709;BME280;35601;55.902;13.606;2023-05-23T03:52:52;100476.67;;;9.02;62.64
49709;BME280;35601;55.902;13.606;2023-05-23T03:55:16;100476.42;;;9.09;62.08
49709;BME280;35601;55.902;13.606;2023-05-23T03:57:42;100474.67;;;9.31;61.73
49709;BME280;35601;55.902;13.606;2023-05-23T04:00:08;100480.30;;;9.42;61.29
49709;BME280;35601;55.902;13.606;2023-05-23T04:02:32;100483.18;;;9.60;61.07
49709;BME280;35601;55.902;13.606;2023-05-23T04:04:57;100482.72;;;9.72;60.84
49709;BME280;35601;55.902;13.606;2023-05-23T04:07:23;100476.65;;;9.56;60.25
49709;BME280;35601;55.902;13.606;2023-05-23T04:09:48;100468.83;;;9.76;60.21
49709;BME280;35601;55.902;13.606;2023-05-23T04:12:13;100465.14;;;10.11;60.08
49709;BME280;35601;55.902;13.606;2023-05-23T04:14:39;100467.51;;;9.81;59.90
49709;BME280;35601;55.902;13.606;2023-05-23T04:17:05;100465.33;;;8.92;59.90
49709;BME280;35601;55.902;13.606;2023-05-23T04:19:29;100461.87;;;9.89;59.62
49709;BME280;35601;55.902;13.606;2023-05-23T04:21:54;100463.73;;;9.81;59.07
49709;BME280;35601;55.902;13.606;2023-05-23T04:24:20;100463.46;;;9.99;59.49
49709;BME280;35601;55.902;13.606;2023-05-23T04:26:45;100464.13;;;9.95;59.29
49709;BME280;35601;55.902;13.606;2023-05-23T04:29:11;100461.00;;;10.30;59.03
49709;BME280;35601;55.902;13.606;2023-05-23T04:31:37;100457.76;;;9.97;59.70
49709;BME280;35601;55.902;13.606;2023-05-23T04:34:02;100453.97;;;9.90;59.46
49709;BME280;35601;55.902;13.606;2023-05-23T04:36:27;100448.47;;;10.10;59.26
49709;BME280;35601;55.902;13.606;2023-05-23T04:38:52;100447.29;;;10.02;58.84
49709;BME280;35601;55.902;13.606;2023-05-23T04:41:17;100444.27;;;10.15;59.49
49709;BME280;35601;55.902;13.606;2023-05-23T04:43:42;100442.12;;;10.04;58.94
49709;BME280;35601;55.902;13.606;2023-05-23T04:46:07;100445.58;;;10.40;59.45
49709;BME280;35601;55.902;13.606;2023-05-23T04:48:33;100445.33;;;10.46;58.67
49709;BME280;35601;55.902;13.606;2023-05-23T04:50:58;100447.53;;;10.54;58.48
49709;BME280;35601;55.902;13.606;2023-05-23T04:53:24;100451.53;;;10.76;58.68
49709;BME280;35601;55.902;13.606;2023-05-23T04:55:49;100453.34;;;10.45;58.79
49709;BME280;35601;55.902;13.606;2023-05-23T04:58:14;100454.77;;;10.87;57.96
49709;BME280;35601;55.902;13.606;2023-05-23T05:00:39;100449.99;;;10.76;56.90
49709;BME280;35601;55.902;13.606;2023-05-23T05:03:06;100454.65;;;11.14;56.91
49709;BME280;35601;55.902;13.606;2023-05-23T05:05:30;100456.91;;;10.85;57.75
49709;BME280;35601;55.902;13.606;2023-05-23T05:07:55;100453.38;;;11.18;56.40
49709;BME280;35601;55.902;13.606;2023-05-23T05:10:21;100451.54;;;11.13;56.28
49709;BME280;35601;55.902;13.606;2023-05-23T05:12:47;100448.83;;;11.22;56.03
49709;BME280;35601;55.902;13.606;2023-05-23T05:15:12;100448.88;;;11.24;55.87
49709;BME280;35601;55.902;13.606;2023-05-23T05:17:37;100445.00;;;11.30;56.59
49709;BME280;35601;55.902;13.606;2023-05-23T05:20:03;100440.82;;;11.26;56.39
49709;BME280;35601;55.902;13.606;2023-05-23T05:22:29;100434.12;;;11.22;56.95
49709;BME280;35601;55.902;13.606;2023-05-23T05:24:54;100431.51;;;11.09;56.64
49709;BME280;35601;55.902;13.606;2023-05-23T05:27:18;100424.13;;;11.45;57.35
49709;BME280;35601;55.902;13.606;2023-05-23T05:29:43;100430.07;;;11.05;57.38
49709;BME280;35601;55.902;13.606;2023-05-23T05:32:10;100432.88;;;10.85;58.25
49709;BME280;35601;55.902;13.606;2023-05-23T05:34:35;100434.92;;;11.14;58.19
49709;BME280;35601;55.902;13.606;2023-05-23T05:36:59;100432.82;;;10.90;57.91
49709;BME280;35601;55.902;13.606;2023-05-23T05:39:25;100435.85;;;9.84;57.22
49709;BME280;35601;55.902;13.606;2023-05-23T05:41:50;100443.17;;;11.31;57.74
49709;BME280;35601;55.902;13.606;2023-05-23T05:44:15;100442.00;;;11.27;59.16
49709;BME280;35601;55.902;13.606;2023-05-23T05:46:41;100437.33;;;11.40;57.95
49709;BME280;35601;55.902;13.606;2023-05-23T05:49:06;100430.09;;;11.65;57.81
49709;BME280;35601;55.902;13.606;2023-05-23T05:51:31;100433.44;;;11.89;57.27
49709;BME280;35601;55.902;13.606;2023-05-23T05:53:57;100438.59;;;11.87;57.06
49709;BME280;35601;55.902;13.606;2023-05-23T05:56:23;100430.99;;;12.24;56.17
49709;BME280;35601;55.902;13.606;2023-05-23T05:58:47;100421.88;;;12.19;55.66
49709;BME280;35601;55.902;13.606;2023-05-23T06:01:13;100416.35;;;11.81;56.03
49709;BME280;35601;55.902;13.606;2023-05-23T06:03:38;100420.96;;;11.99;56.05
49709;BME280;35601;55.902;13.606;2023-05-23T06:06:03;100435.61;;;11.92;56.65
49709;BME280;35601;55.902;13.606;2023-05-23T06:08:30;100427.08;;;12.18;56.41
49709;BME280;35601;55.902;13.606;2023-05-23T06:10:55;100432.48;;;12.05;55.67
49709;BME280;35601;55.902;13.606;2023-05-23T06:13:19;100430.93;;;12.31;55.32
49709;BME280;35601;55.902;13.606;2023-05-23T06:15:45;100435.95;;;12.23;56.14
49709;BME280;35601;55.902;13.606;2023-05-23T06:18:09;100422.19;;;12.58;55.78
49709;BME280;35601;55.902;13.606;2023-05-23T06:20:36;100420.52;;;12.25;56.01
49709;BME280;35601;55.902;13.606;2023-05-23T06:23:01;100422.39;;;12.35;55.55
49709;BME280;35601;55.902;13.606;2023-05-23T06:25:26;100419.16;;;12.55;55.69
49709;BME280;35601;55.902;13.606;2023-05-23T06:27:50;100421.16;;;12.47;56.30
49709;BME280;35601;55.902;13.606;2023-05-23T06:30:17;100417.29;;;12.78;55.38
49709;BME280;35601;55.902;13.606;2023-05-23T06:32:41;100407.70;;;12.87;55.20
49709;BME280;35601;55.902;13.606;2023-05-23T06:35:08;100406.02;;;12.82;55.93
49709;BME280;35601;55.902;13.606;2023-05-23T06:37:32;100408.58;;;12.68;54.76
49709;BME280;35601;55.902;13.606;2023-05-23T06:39:57;100401.91;;;13.08;54.45
49709;BME280;35601;55.902;13.606;2023-05-23T06:42:22;100396.41;;;12.83;54.31
49709;BME280;35601;55.902;13.606;2023-05-23T06:44:49;100396.04;;;13.28;53.97
49709;BME280;35601;55.902;13.606;2023-05-23T06:47:14;100393.30;;;12.75;53.76
49709;BME280;35601;55.902;13.606;2023-05-23T06:49:38;100396.73;;;12.85;54.05
49709;BME280;35601;55.902;13.606;2023-05-23T06:52:04;100393.75;;;12.97;54.66
49709;BME280;35601;55.902;13.606;2023-05-23T06:54:29;100392.75;;;12.94;54.69
49709;BME280;35601;55.902;13.606;2023-05-23T06:56:54;100390.59;;;12.77;54.86
49709;BME280;35601;55.902;13.606;2023-05-23T06:59:20;100383.91;;;12.96;54.72
49709;BME280;35601;55.902;13.606;2023-05-23T07:01:45;100392.38;;;12.97;54.85
49709;BME280;35601;55.902;13.606;2023-05-23T07:04:10;100394.72;;;13.04;55.86
49709;BME280;35601;55.902;13.606;2023-05-23T07:06:35;100405.04;;;12.70;57.69
49709;BME280;35601;55.902;13.606;2023-05-23T07:09:01;100400.72;;;12.97;56.05
49709;BME280;35601;55.902;13.606;2023-05-23T07:11:26;100408.74;;;12.93;56.06
49709;BME280;35601;55.902;13.606;2023-05-23T07:13:52;100411.37;;;13.01;57.86
49709;BME280;35601;55.902;13.606;2023-05-23T07:16:17;100403.87;;;13.05;56.50
49709;BME280;35601;55.902;13.606;2023-05-23T07:18:42;100407.36;;;13.07;57.98
49709;BME280;35601;55.902;13.606;2023-05-23T07:21:07;100400.61;;;12.98;57.57
49709;BME280;35601;55.902;13.606;2023-05-23T07:23:33;100392.03;;;13.44;58.23
49709;BME280;35601;55.902;13.606;2023-05-23T07:25:58;100386.86;;;13.32;57.95
49709;BME280;35601;55.902;13.606;2023-05-23T07:28:24;100369.57;;;13.17;57.72
49709;BME280;35601;55.902;13.606;2023-05-23T07:30:49;100366.36;;;13.17;57.99
49709;BME280;35601;55.902;13.606;2023-05-23T07:33:14;100383.77;;;13.33;57.29
49709;BME280;35601;55.902;13.606;2023-05-23T07:35:40;100388.47;;;13.43;58.06
49709;BME280;35601;55.902;13.606;2023-05-23T07:38:06;100384.84;;;13.42;57.46
49709;BME280;35601;55.902;13.606;2023-05-23T07:40:30;100380.46;;;13.86;56.83
49709;BME280;35601;55.902;13.606;2023-05-23T07:42:55;100388.33;;;13.82;56.98
49709;BME280;35601;55.902;13.606;2023-05-23T07:45:21;100382.63;;;13.77;56.38
49709;BME280;35601;55.902;13.606;2023-05-23T07:47:46;100382.41;;;14.07;56.43
49709;BME280;35601;55.902;13.606;2023-05-23T07:50:11;100378.63;;;14.01;56.52
49709;BME280;35601;55.902;13.606;2023-05-23T07:52:37;100379.23;;;14.11;57.45
49709;BME280;35601;55.902;13.606;2023-05-23T07:55:03;100385.20;;;14.06;57.01
49709;BME280;35601;55.902;13.606;2023-05-23T07:57:28;100385.39;;;13.98;57.13
49709;BME280;35601;55.902;13.606;2023-05-23T07:59:53;100373.99;;;13.70;57.47
49709;BME280;35601;55.902;13.606;2023-05-23T08:02:19;100373.88;;;13.92;58.02
49709;BME280;35601;55.902;13.606;2023-05-23T08:04:46;100375.22;;;13.79;58.45
49709;BME280;35601;55.902;13.606;2023-05-23T08:07:09;100371.77;;;13.84;59.61
49709;BME280;35601;55.902;13.606;2023-05-23T08:09:34;100368.40;;;13.86;58.51
49709;BME280;35601;55.902;13.606;2023-05-23T08:12:00;100382.56;;;13.94;58.86
49709;BME280;35601;55.902;13.606;2023-05-23T08:14:25;100401.76;;;13.68;63.38
49709;BME280;35601;55.902;13.606;2023-05-23T08:16:51;100398.70;;;13.58;63.31
49709;BME280;35601;55.902;13.606;2023-05-23T08:19:16;100407.05;;;13.78;61.77
49709;BME280;35601;55.902;13.606;2023-05-23T08:21:41;100405.60;;;13.77;61.26
49709;BME280;35601;55.902;13.606;2023-05-23T08:24:06;100399.08;;;13.86;61.70
49709;BME280;35601;55.902;13.606;2023-05-23T08:26:31;100400.93;;;14.31;59.61
49709;BME280;35601;55.902;13.606;2023-05-23T08:28:57;100416.47;;;13.74;61.09
49709;BME280;35601;55.902;13.606;2023-05-23T08:31:22;100390.11;;;13.99;60.25
49709;BME280;35601;55.902;13.606;2023-05-23T08:33:47;100393.01;;;14.24;59.65
49709;BME280;35601;55.902;13.606;2023-05-23T08:36:12;100386.14;;;14.47;59.03
49709;BME280;35601;55.902;13.606;2023-05-23T08:38:37;100391.87;;;14.50;58.77
49709;BME280;35601;55.902;13.606;2023-05-23T08:41:04;100399.07;;;14.40;60.39
49709;BME280;35601;55.902;13.606;2023-05-23T08:43:28;100386.06;;;14.28;60.29
49709;BME280;35601;55.902;13.606;2023-05-23T08:45:53;100396.46;;;14.22;60.41
49709;BME280;35601;55.902;13.606;2023-05-23T08:48:20;100378.62;;;14.43;59.46
49709;BME280;35601;55.902;13.606;2023-05-23T08:50:46;100385.01;;;14.56;60.59
49709;BME280;35601;55.902;13.606;2023-05-23T08:53:11;100381.23;;;14.09;60.22
49709;BME280;35601;55.902;13.606;2023-05-23T08:55:36;100388.90;;;14.05;60.23
49709;BME280;35601;55.902;13.606;2023-05-23T08:58:02;100381.09;;;14.41;60.53
49709;BME280;35601;55.902;13.606;2023-05-23T09:00:27;100396.28;;;14.44;60.15
49709;BME280;35601;55.902;13.606;2023-05-23T09:02:50;100394.34;;;14.12;60.06
49709;BME280;35601;55.902;13.606;2023-05-23T09:05:17;100398.86;;;14.10;61.34
49709;BME280;35601;55.902;13.606;2023-05-23T09:07:42;100394.82;;;14.17;61.61
49709;BME280;35601;55.902;13.606;2023-05-23T09:10:08;100392.77;;;14.11;62.17
49709;BME280;35601;55.902;13.606;2023-05-23T09:12:33;100390.94;;;14.09;64.17
49709;BME280;35601;55.902;13.606;2023-05-23T09:14:57;100391.53;;;14.28;64.04
49709;BME280;35601;55.902;13.606;2023-05-23T09:17:22;100388.11;;;14.11;63.81
49709;BME280;35601;55.902;13.606;2023-05-23T09:19:47;100388.77;;;14.15;64.95
49709;BME280;35601;55.902;13.606;2023-05-23T09:22:12;100387.80;;;14.25;65.33
49709;BME280;35601;55.902;13.606;2023-05-23T09:24:38;100387.29;;;13.98;66.04
49709;BME280;35601;55.902;13.606;2023-05-23T09:27:04;100382.08;;;14.29;65.76
49709;BME280;35601;55.902;13.606;2023-05-23T09:29:29;100376.64;;;13.79;67.35
49709;BME280;35601;55.902;13.606;2023-05-23T09:31:59;100373.79;;;13.66;66.22
49709;BME280;35601;55.902;13.606;2023-05-23T09:34:19;100374.29;;;13.66;67.52
49709;BME280;35601;55.902;13.606;2023-05-23T09:36:45;100375.30;;;14.03;67.79
49709;BME280;35601;55.902;13.606;2023-05-23T09:39:11;100374.78;;;14.02;67.79
49709;BME280;35601;55.902;13.606;2023-05-23T09:41:35;100378.88;;;14.08;67.37
49709;BME280;35601;55.902;13.606;2023-05-23T09:44:05;100386.85;;;13.63;68.09
49709;BME280;35601;55.902;13.606;2023-05-23T09:46:27;100383.67;;;14.22;67.50
49709;BME280;35601;55.902;13.606;2023-05-23T09:48:51;100377.92;;;13.88;67.66
49709;BME280;35601;55.902;13.606;2023-05-23T09:51:18;100370.75;;;14.00;67.47
49709;BME280;35601;55.902;13.606;2023-05-23T09:53:42;100362.37;;;14.03;69.42
49709;BME280;35601;55.902;13.606;2023-05-23T09:56:09;100353.72;;;14.01;70.04
49709;BME280;35601;55.902;13.606;2023-05-23T09:58:34;100349.23;;;13.96;68.50
49709;BME280;35601;55.902;13.606;2023-05-23T10:00:59;100350.35;;;13.98;69.97
49709;BME280;35601;55.902;13.606;2023-05-23T10:03:29;100351.37;;;14.20;69.79
49709;BME280;35601;55.902;13.606;2023-05-23T10:05:50;100345.35;;;14.34;68.62
49709;BME280;35601;55.902;13.606;2023-05-23T10:08:18;100342.46;;;14.38;68.80
49709;BME280;35601;55.902;13.606;2023-05-23T10:13:04;100343.76;;;14.64;66.13
49709;BME280;35601;55.902;13.606;2023-05-23T10:15:35;100347.73;;;14.46;66.46
49709;BME280;35601;55.902;13.606;2023-05-23T10:18:07;100348.79;;;14.25;66.98
49709;BME280;35601;55.902;13.606;2023-05-23T10:20:24;100351.63;;;14.22;65.62
49709;BME280;35601;55.902;13.606;2023-05-23T10:22:45;100351.12;;;14.55;65.83
49709;BME280;35601;55.902;13.606;2023-05-23T10:25:10;100352.36;;;14.35;65.36
49709;BME280;35601;55.902;13.606;2023-05-23T10:27:36;100349.36;;;14.21;66.49
49709;BME280;35601;55.902;13.606;2023-05-23T10:30:00;100348.65;;;14.37;66.16
49709;BME280;35601;55.902;13.606;2023-05-23T10:32:26;100347.40;;;14.51;64.96
49709;BME280;35601;55.902;13.606;2023-05-23T10:34:56;100347.28;;;14.99;64.47
49709;BME280;35601;55.902;13.606;2023-05-23T10:37:23;100342.16;;;15.18;64.52
49709;BME280;35601;55.902;13.606;2023-05-23T10:39:56;100340.19;;;15.07;63.63
49709;BME280;35601;55.902;13.606;2023-05-23T10:42:10;100338.38;;;14.92;63.80
49709;BME280;35601;55.902;13.606;2023-05-23T10:44:36;100334.78;;;15.14;64.97
49709;BME280;35601;55.902;13.606;2023-05-23T10:46:59;100336.93;;;15.07;63.17
49709;BME280;35601;55.902;13.606;2023-05-23T10:49:36;100341.71;;;14.76;63.16
49709;BME280;35601;55.902;13.606;2023-05-23T10:51:49;100347.06;;;14.78;63.45
49709;BME280;35601;55.902;13.606;2023-05-23T10:54:16;100359.27;;;14.97;63.55
49709;BME280;35601;55.902;13.606;2023-05-23T10:56:40;100366.67;;;15.26;64.32
49709;BME280;35601;55.902;13.606;2023-05-23T10:59:07;100367.78;;;15.33;67.12
49709;BME280;35601;55.902;13.606;2023-05-23T11:01:38;100368.95;;;14.86;65.44
49709;BME280;35601;55.902;13.606;2023-05-23T11:03:57;100363.46;;;15.56;65.40
49709;BME280;35601;55.902;13.606;2023-05-23T11:06:29;100359.48;;;15.67;64.97
49709;BME280;35601;55.902;13.606;2023-05-23T11:08:47;100357.64;;;15.67;63.95
49709;BME280;35601;55.902;13.606;2023-05-23T11:11:13;100364.28;;;15.48;63.72
49709;BME280;35601;55.902;13.606;2023-05-23T11:13:53;100365.81;;;15.63;63.44
49709;BME280;35601;55.902;13.606;2023-05-23T11:18:34;100382.26;;;15.77;64.34
49709;BME280;35601;55.902;13.606;2023-05-23T11:20:58;100376.57;;;15.84;63.81
49709;BME280;35601;55.902;13.606;2023-05-23T11:23:21;100377.38;;;15.91;63.42
49709;BME280;35601;55.902;13.606;2023-05-23T11:25:48;100383.21;;;15.90;62.94
49709;BME280;35601;55.902;13.606;2023-05-23T11:28:12;100381.35;;;16.02;63.25
49709;BME280;35601;55.902;13.606;2023-05-23T11:30:37;100385.13;;;15.63;64.55
49709;BME280;35601;55.902;13.606;2023-05-23T11:33:06;100387.37;;;15.82;62.60
49709;BME280;35601;55.902;13.606;2023-05-23T11:35:26;100383.48;;;15.80;63.58
49709;BME280;35601;55.902;13.606;2023-05-23T11:37:52;100382.70;;;15.86;61.46
49709;BME280;35601;55.902;13.606;2023-05-23T11:40:27;100388.97;;;15.91;63.28
49709;BME280;35601;55.902;13.606;2023-05-23T11:42:44;100388.95;;;15.91;62.52
49709;BME280;35601;55.902;13.606;2023-05-23T11:45:09;100388.77;;;15.89;60.80
49709;BME280;35601;55.902;13.606;2023-05-23T11:47:39;100385.33;;;15.91;61.76
49709;BME280;35601;55.902;13.606;2023-05-23T11:50:00;100389.37;;;15.75;61.42
49709;BME280;35601;55.902;13.606;2023-05-23T11:52:23;100395.85;;;15.47;62.14
49709;BME280;35601;55.902;13.606;2023-05-23T11:54:49;100400.21;;;15.03;63.37
49709;BME280;35601;55.902;13.606;2023-05-23T11:57:16;100394.70;;;15.03;61.64
49709;BME280;35601;55.902;13.606;2023-05-23T11:59:41;100391.72;;;14.88;63.40
49709;BME280;35601;55.902;13.606;2023-05-23T12:02:06;100394.49;;;15.05;64.79
49709;BME280;35601;55.902;13.606;2023-05-23T12:04:34;100393.71;;;14.84;63.47
49709;BME280;35601;55.902;13.606;2023-05-23T12:06:58;100396.16;;;14.63;64.81
49709;BME280;35601;55.902;13.606;2023-05-23T12:09:22;100397.18;;;14.92;64.33
49709;BME280;35601;55.902;13.606;2023-05-23T12:11:48;100398.24;;;14.47;63.99
49709;BME280;35601;55.902;13.606;2023-05-23T12:14:14;100398.72;;;14.69;64.32
49709;BME280;35601;55.902;13.606;2023-05-23T12:16:39;100396.50;;;14.67;64.87
49709;BME280;35601;55.902;13.606;2023-05-23T12:19:06;100389.67;;;14.62;64.64
49709;BME280;35601;55.902;13.606;2023-05-23T12:21:39;100386.92;;;14.83;63.99
49709;BME280;35601;55.902;13.606;2023-05-23T12:23:56;100389.45;;;15.19;64.21
49709;BME280;35601;55.902;13.606;2023-05-23T12:26:20;100391.94;;;15.24;63.08
49709;BME280;35601;55.902;13.606;2023-05-23T12:28:46;100394.54;;;15.19;62.91
49709;BME280;35601;55.902;13.606;2023-05-23T12:31:17;100393.53;;;15.31;63.06
49709;BME280;35601;55.902;13.606;2023-05-23T12:33:38;100394.52;;;15.27;63.41
49709;BME280;35601;55.902;13.606;2023-05-23T12:36:02;100388.12;;;15.47;61.85